createdAt,value
2023-05-24T00:00:20.794Z,24.10
2023-05-24T00:01:20.769Z,24.11
2023-05-24T00:02:20.791Z,24.07
2023-05-24T00:03:20.790Z,24.07
2023-05-24T00:04:20.776Z,24.10
2023-05-24T00:05:20.745Z,24.08
2023-05-24T00:06:20.725Z,24.08
2023-05-24T00:07:20.759Z,24.07
2023-05-24T00:08:20.706Z,24.08
2023-05-24T00:09:21.454Z,24.11
2023-05-24T00:10:20.701Z,24.08
2023-05-24T00:11:20.691Z,24.08
2023-05-24T00:12:20.671Z,24.10
2023-05-24T00:13:20.692Z,24.07
2023-05-24T00:14:20.661Z,24.05
2023-05-24T00:15:20.666Z,24.10
2023-05-24T00:16:20.723Z,24.05
2023-05-24T00:17:20.673Z,24.10
2023-05-24T00:18:20.621Z,24.07
2023-05-24T00:19:20.995Z,24.08
2023-05-24T00:20:20.882Z,24.07
2023-05-24T00:21:20.601Z,24.08
2023-05-24T00:22:20.608Z,24.07
2023-05-24T00:23:20.582Z,24.05
2023-05-24T00:24:20.580Z,24.07
2023-05-24T00:25:20.594Z,24.08
2023-05-24T00:26:20.607Z,24.07
2023-05-24T00:27:20.591Z,24.07
2023-05-24T00:28:20.547Z,24.04
2023-05-24T00:29:20.561Z,24.10
2023-05-24T00:30:20.555Z,24.07
2023-05-24T00:31:20.644Z,24.08
2023-05-24T00:32:20.573Z,24.10
2023-05-24T00:33:20.513Z,24.05
2023-05-24T00:34:20.522Z,24.08
2023-05-24T00:35:20.529Z,24.08
2023-05-24T00:36:20.504Z,24.07
2023-05-24T00:37:20.510Z,24.07
2023-05-24T00:38:20.522Z,24.08
2023-05-24T00:39:20.472Z,24.07
2023-05-24T00:40:20.481Z,24.08
2023-05-24T00:41:20.473Z,24.07
2023-05-24T00:42:20.461Z,24.08
2023-05-24T00:43:20.438Z,24.07
2023-05-24T00:44:20.456Z,24.07
2023-05-24T00:45:20.415Z,24.10
2023-05-24T00:46:20.522Z,24.07
2023-05-24T00:47:20.422Z,24.05
2023-05-24T00:48:20.413Z,24.07
2023-05-24T00:49:20.397Z,24.08
2023-05-24T00:50:20.390Z,24.07
2023-05-24T00:51:20.405Z,24.07
2023-05-24T00:52:20.369Z,24.07
2023-05-24T00:53:20.364Z,24.08
2023-05-24T00:54:20.369Z,24.07
2023-05-24T00:55:20.362Z,24.08
2023-05-24T00:56:20.382Z,24.07
2023-05-24T00:57:20.364Z,24.07
2023-05-24T00:58:20.322Z,24.05
2023-05-24T00:59:20.325Z,24.05
2023-05-24T01:00:20.327Z,24.07
2023-05-24T01:01:20.351Z,24.03
2023-05-24T01:02:20.356Z,24.05
2023-05-24T01:03:20.347Z,24.04
2023-05-24T01:04:20.286Z,24.05
2023-05-24T01:05:20.283Z,24.04
2023-05-24T01:06:20.279Z,24.07
2023-05-24T01:07:20.282Z,24.04
2023-05-24T01:08:20.260Z,24.05
2023-05-24T01:09:20.258Z,24.08
2023-05-24T01:10:20.238Z,24.05
2023-05-24T01:11:20.247Z,24.04
2023-05-24T01:12:20.250Z,24.05
2023-05-24T01:13:20.218Z,24.08
2023-05-24T01:14:20.237Z,24.05
2023-05-24T01:15:20.225Z,24.05
2023-05-24T01:16:20.215Z,24.05
2023-05-24T01:17:20.173Z,24.07
2023-05-24T01:18:20.186Z,24.05
2023-05-24T01:19:20.192Z,24.05
2023-05-24T01:20:20.226Z,24.07
2023-05-24T01:21:20.184Z,24.05
2023-05-24T01:22:20.129Z,24.05
2023-05-24T01:23:20.156Z,24.05
2023-05-24T01:24:20.131Z,24.05
2023-05-24T01:25:20.160Z,24.07
2023-05-24T01:26:20.142Z,24.07
2023-05-24T01:27:20.102Z,24.05
2023-05-24T01:28:20.114Z,24.05
2023-05-24T01:29:20.133Z,24.05
2023-05-24T01:30:20.117Z,24.08
2023-05-24T01:31:20.142Z,24.05
2023-05-24T01:32:20.207Z,24.07
2023-05-24T01:33:20.093Z,24.05
2023-05-24T01:34:20.098Z,24.04
2023-05-24T01:35:20.082Z,24.05
2023-05-24T01:36:20.069Z,24.05
2023-05-24T01:37:20.068Z,24.07
2023-05-24T01:38:20.061Z,24.05
2023-05-24T01:39:20.044Z,24.04
2023-05-24T01:40:20.046Z,24.05
2023-05-24T01:41:20.045Z,24.03
2023-05-24T01:42:20.027Z,24.04
2023-05-24T01:43:20.005Z,24.07
2023-05-24T01:44:19.989Z,24.08
2023-05-24T01:45:20.034Z,24.05
2023-05-24T01:46:20.019Z,24.05
2023-05-24T01:47:19.982Z,24.03
2023-05-24T01:48:19.992Z,24.05
2023-05-24T01:49:19.959Z,24.04
2023-05-24T01:50:19.975Z,24.04
2023-05-24T01:51:19.954Z,24.04
2023-05-24T01:52:20.026Z,24.05
2023-05-24T01:53:19.955Z,24.05
2023-05-24T01:54:19.899Z,24.05
2023-05-24T01:55:19.937Z,24.08
2023-05-24T01:56:19.900Z,24.05
2023-05-24T01:57:19.895Z,24.05
2023-05-24T01:58:19.897Z,24.04
2023-05-24T01:59:19.901Z,24.05
2023-05-24T02:00:19.879Z,24.03
2023-05-24T02:01:19.978Z,24.04
2023-05-24T02:02:19.983Z,24.03
2023-05-24T02:03:19.937Z,24.05
2023-05-24T02:04:19.878Z,24.03
2023-05-24T02:05:19.837Z,24.04
2023-05-24T02:06:19.838Z,24.04
2023-05-24T02:07:19.830Z,24.04
2023-05-24T02:08:19.793Z,24.04
2023-05-24T02:09:19.821Z,24.04
2023-05-24T02:10:19.792Z,24.03
2023-05-24T02:11:19.796Z,24.05
2023-05-24T02:12:19.794Z,24.05
2023-05-24T02:13:19.859Z,24.03
2023-05-24T02:14:19.780Z,24.05
2023-05-24T02:15:19.788Z,24.04
2023-05-24T02:16:19.813Z,24.05
2023-05-24T02:17:19.782Z,24.05
2023-05-24T02:18:19.768Z,24.04
2023-05-24T02:19:19.777Z,24.03
2023-05-24T02:20:19.773Z,24.04
2023-05-24T02:21:19.705Z,24.04
2023-05-24T02:22:19.709Z,24.04
2023-05-24T02:23:19.693Z,24.04
2023-05-24T02:24:19.702Z,24.03
2023-05-24T02:25:19.693Z,24.04
2023-05-24T02:26:19.710Z,24.04
2023-05-24T02:27:19.699Z,24.05
2023-05-24T02:28:19.669Z,24.05
2023-05-24T02:29:19.656Z,24.05
2023-05-24T02:30:19.635Z,24.05
2023-05-24T02:31:19.707Z,24.05
2023-05-24T02:32:19.682Z,24.04
2023-05-24T02:33:19.649Z,24.04
2023-05-24T02:34:19.632Z,24.04
2023-05-24T02:35:19.629Z,24.05
2023-05-24T02:36:19.602Z,24.03
2023-05-24T02:37:19.591Z,24.03
2023-05-24T02:38:19.599Z,24.03
2023-05-24T02:39:19.602Z,24.05
2023-05-24T02:40:19.578Z,24.03
2023-05-24T02:41:19.604Z,24.04
2023-05-24T02:42:19.562Z,24.04
2023-05-24T02:43:19.583Z,24.05
2023-05-24T02:44:19.569Z,24.03
2023-05-24T02:45:19.530Z,24.03
2023-05-24T02:46:19.670Z,24.03
2023-05-24T02:47:19.542Z,24.03
2023-05-24T02:48:19.530Z,24.03
2023-05-24T02:49:19.487Z,24.04
2023-05-24T02:50:19.503Z,24.03
2023-05-24T02:51:19.509Z,24.04
2023-05-24T02:52:19.499Z,24.05
2023-05-24T02:53:19.506Z,24.05
2023-05-24T02:54:19.476Z,24.01
2023-05-24T02:55:19.485Z,24.04
2023-05-24T02:56:19.472Z,24.04
2023-05-24T02:57:19.476Z,24.01
2023-05-24T02:58:19.477Z,24.03
2023-05-24T02:59:19.471Z,24.03
2023-05-24T03:00:19.460Z,24.04
2023-05-24T03:01:19.459Z,24.04
2023-05-24T03:02:19.436Z,24.04
2023-05-24T03:03:19.487Z,24.03
2023-05-24T03:04:19.411Z,24.03
2023-05-24T03:05:19.420Z,24.01
2023-05-24T03:06:19.392Z,24.01
2023-05-24T03:07:19.370Z,24.03
2023-05-24T03:08:19.393Z,24.03
2023-05-24T03:09:19.351Z,24.03
2023-05-24T03:10:19.437Z,24.03
2023-05-24T03:11:19.341Z,24.03
2023-05-24T03:12:19.344Z,24.01
2023-05-24T03:13:19.362Z,24.03
2023-05-24T03:14:19.328Z,24.03
2023-05-24T03:15:19.299Z,24.04
2023-05-24T03:16:19.479Z,24.04
2023-05-24T03:17:19.314Z,24.01
2023-05-24T03:18:19.294Z,24.00
2023-05-24T03:19:19.292Z,24.03
2023-05-24T03:20:19.314Z,24.03
2023-05-24T03:21:19.318Z,24.04
2023-05-24T03:22:19.301Z,24.03
2023-05-24T03:23:19.284Z,24.03
2023-05-24T03:24:19.272Z,24.03
2023-05-24T03:25:19.274Z,24.03
2023-05-24T03:26:19.263Z,24.04
2023-05-24T03:27:19.225Z,24.01
2023-05-24T03:28:19.242Z,24.03
2023-05-24T03:29:19.211Z,24.03
2023-05-24T03:30:19.203Z,24.03
2023-05-24T03:31:19.243Z,24.04
2023-05-24T03:32:19.188Z,24.01
2023-05-24T03:33:19.204Z,24.03
2023-05-24T03:34:19.205Z,24.03
2023-05-24T03:35:19.192Z,24.03
2023-05-24T03:36:19.212Z,24.01
2023-05-24T03:37:19.150Z,23.99
2023-05-24T03:38:19.167Z,24.03
2023-05-24T03:39:19.159Z,24.01
2023-05-24T03:40:19.145Z,24.00
2023-05-24T03:41:19.150Z,24.01
2023-05-24T03:42:19.100Z,24.03
2023-05-24T03:43:19.103Z,24.03
2023-05-24T03:44:19.132Z,24.01
2023-05-24T03:45:27.023Z,24.01
2023-05-24T03:46:20.125Z,24.03
2023-05-24T03:47:19.109Z,24.04
2023-05-24T03:48:19.072Z,24.03
2023-05-24T03:49:19.105Z,24.03
2023-05-24T03:50:19.063Z,24.04
2023-05-24T03:51:19.085Z,24.03
2023-05-24T03:52:19.027Z,24.01
2023-05-24T03:53:20.075Z,24.00
2023-05-24T03:54:19.076Z,24.01
2023-05-24T03:55:19.081Z,24.03
2023-05-24T03:56:19.092Z,24.03
2023-05-24T03:57:19.086Z,24.00
2023-05-24T03:58:19.082Z,24.03
2023-05-24T03:59:19.141Z,24.03
2023-05-24T04:00:19.061Z,24.03
2023-05-24T04:01:32.753Z,24.01
2023-05-24T04:02:20.107Z,24.01
2023-05-24T04:03:19.180Z,24.01
2023-05-24T04:04:19.089Z,24.03
2023-05-24T04:05:19.040Z,24.01
2023-05-24T04:06:19.041Z,24.01
2023-05-24T04:07:19.014Z,24.01
2023-05-24T04:08:19.034Z,23.99
2023-05-24T04:09:19.003Z,24.03
2023-05-24T04:10:18.981Z,24.03
2023-05-24T04:11:18.980Z,24.01
2023-05-24T04:12:18.983Z,24.03
2023-05-24T04:13:18.968Z,24.01
2023-05-24T04:14:18.988Z,24.01
2023-05-24T04:15:18.938Z,24.01
2023-05-24T04:16:19.173Z,24.01
2023-05-24T04:17:19.044Z,24.00
2023-05-24T04:18:19.018Z,24.00
2023-05-24T04:19:18.920Z,24.03
2023-05-24T04:20:19.005Z,24.03
2023-05-24T04:21:18.924Z,24.01
2023-05-24T04:22:18.920Z,24.03
2023-05-24T04:23:18.881Z,23.99
2023-05-24T04:24:18.924Z,24.01
2023-05-24T04:25:18.901Z,24.04
2023-05-24T04:26:18.879Z,24.01
2023-05-24T04:27:18.894Z,24.03
2023-05-24T04:28:18.863Z,24.01
2023-05-24T04:29:18.846Z,24.00
2023-05-24T04:30:18.847Z,24.00
2023-05-24T04:31:18.849Z,24.00
2023-05-24T04:32:18.846Z,24.00
2023-05-24T04:33:18.812Z,24.01
2023-05-24T04:34:18.837Z,24.01
2023-05-24T04:35:18.829Z,24.03
2023-05-24T04:36:18.814Z,24.00
2023-05-24T04:37:18.795Z,24.01
2023-05-24T04:38:20.072Z,24.01
2023-05-24T04:39:18.796Z,24.03
2023-05-24T04:40:18.771Z,24.01
2023-05-24T04:41:18.783Z,24.01
2023-05-24T04:42:18.754Z,24.01
2023-05-24T04:43:18.776Z,24.01
2023-05-24T04:44:18.726Z,24.01
2023-05-24T04:45:18.752Z,24.01
2023-05-24T04:46:18.792Z,24.01
2023-05-24T04:47:18.750Z,24.03
2023-05-24T04:48:18.705Z,24.01
2023-05-24T04:49:18.725Z,24.01
2023-05-24T04:50:18.708Z,24.03
2023-05-24T04:51:18.685Z,24.03
2023-05-24T04:52:18.701Z,24.04
2023-05-24T04:53:18.662Z,24.03
2023-05-24T04:54:18.673Z,24.03
2023-05-24T04:55:18.654Z,24.01
2023-05-24T04:56:18.664Z,24.03
2023-05-24T04:57:18.665Z,24.03
2023-05-24T04:58:18.641Z,24.00
2023-05-24T04:59:18.613Z,24.01
2023-05-24T05:00:18.629Z,24.01
2023-05-24T05:01:18.687Z,24.03
2023-05-24T05:02:18.637Z,24.04
2023-05-24T05:03:18.700Z,24.03
2023-05-24T05:04:18.616Z,24.01
2023-05-24T05:05:18.585Z,24.00
2023-05-24T05:06:18.591Z,24.03
2023-05-24T05:07:18.586Z,24.03
2023-05-24T05:08:18.571Z,24.03
2023-05-24T05:09:18.551Z,24.01
2023-05-24T05:10:18.546Z,24.03
2023-05-24T05:11:18.521Z,23.99
2023-05-24T05:12:18.527Z,24.00
2023-05-24T05:13:18.520Z,24.01
2023-05-24T05:14:18.526Z,24.03
2023-05-24T05:15:18.518Z,24.01
2023-05-24T05:16:18.535Z,24.01
2023-05-24T05:17:18.486Z,24.03
2023-05-24T05:18:18.560Z,24.03
2023-05-24T05:19:18.457Z,24.03
2023-05-24T05:20:18.537Z,24.03
2023-05-24T05:21:18.478Z,24.03
2023-05-24T05:22:18.444Z,24.03
2023-05-24T05:23:18.452Z,23.99
2023-05-24T05:24:18.459Z,24.00
2023-05-24T05:25:18.486Z,24.00
2023-05-24T05:26:18.440Z,24.01
2023-05-24T05:27:18.408Z,24.00
2023-05-24T05:28:18.418Z,24.01
2023-05-24T05:29:18.393Z,24.01
2023-05-24T05:30:18.403Z,24.01
2023-05-24T05:31:18.378Z,24.00
2023-05-24T05:32:18.482Z,24.01
2023-05-24T05:33:18.416Z,24.00
2023-05-24T05:34:18.392Z,24.03
2023-05-24T05:35:18.368Z,24.04
2023-05-24T05:36:18.375Z,23.99
2023-05-24T05:37:18.367Z,24.01
2023-05-24T05:38:18.360Z,24.01
2023-05-24T05:39:18.362Z,24.00
2023-05-24T05:40:18.375Z,24.01
2023-05-24T05:41:18.357Z,24.01
2023-05-24T05:42:18.352Z,24.01
2023-05-24T05:43:18.291Z,24.01
2023-05-24T05:44:18.318Z,24.01
2023-05-24T05:45:18.332Z,24.01
2023-05-24T05:46:18.320Z,24.01
2023-05-24T05:47:18.289Z,24.01
2023-05-24T05:48:18.304Z,24.03
2023-05-24T05:49:18.290Z,24.01
2023-05-24T05:50:18.270Z,24.01
2023-05-24T05:51:18.256Z,24.01
2023-05-24T05:52:18.232Z,24.00
2023-05-24T05:53:18.236Z,24.03
2023-05-24T05:54:18.274Z,24.01
2023-05-24T05:55:18.209Z,24.03
2023-05-24T05:56:18.248Z,24.01
2023-05-24T05:57:18.239Z,24.04
2023-05-24T05:58:18.228Z,24.01
2023-05-24T05:59:18.225Z,24.01
2023-05-24T06:00:18.212Z,24.01
2023-05-24T06:01:18.198Z,24.03
2023-05-24T06:02:18.240Z,24.03
2023-05-24T06:03:18.396Z,24.04
2023-05-24T06:04:18.204Z,24.03
2023-05-24T06:05:18.140Z,24.01
2023-05-24T06:06:18.157Z,24.04
2023-05-24T06:07:18.151Z,24.04
2023-05-24T06:08:18.129Z,24.05
2023-05-24T06:09:18.105Z,24.04
2023-05-24T06:10:18.092Z,24.04
2023-05-24T06:11:18.119Z,24.03
2023-05-24T06:12:18.087Z,24.04
2023-05-24T06:13:18.104Z,24.04
2023-05-24T06:14:18.071Z,24.05
2023-05-24T06:15:18.083Z,24.05
2023-05-24T06:16:18.127Z,24.07
2023-05-24T06:17:18.083Z,24.05
2023-05-24T06:18:18.069Z,24.05
2023-05-24T06:19:18.045Z,24.04
2023-05-24T06:20:18.103Z,24.08
2023-05-24T06:21:18.007Z,24.03
2023-05-24T06:22:18.039Z,24.07
2023-05-24T06:23:18.010Z,24.07
2023-05-24T06:24:18.017Z,24.05
2023-05-24T06:25:17.987Z,24.05
2023-05-24T06:26:17.986Z,24.05
2023-05-24T06:27:18.014Z,24.05
2023-05-24T06:28:17.989Z,24.05
2023-05-24T06:29:17.991Z,24.04
2023-05-24T06:30:18.004Z,24.07
2023-05-24T06:31:18.022Z,24.05
2023-05-24T06:32:17.972Z,24.07
2023-05-24T06:33:17.967Z,24.05
2023-05-24T06:34:17.957Z,24.04
2023-05-24T06:35:17.991Z,24.05
2023-05-24T06:36:17.954Z,24.04
2023-05-24T06:37:17.927Z,24.05
2023-05-24T06:38:17.898Z,24.05
2023-05-24T06:39:17.945Z,24.04
2023-05-24T06:40:17.910Z,24.07
2023-05-24T06:41:17.898Z,24.05
2023-05-24T06:42:17.896Z,24.07
2023-05-24T06:43:17.893Z,24.05
2023-05-24T06:44:17.878Z,24.05
2023-05-24T06:45:17.836Z,24.07
2023-05-24T06:46:17.871Z,24.07
2023-05-24T06:47:17.927Z,24.05
2023-05-24T06:48:17.900Z,24.08
2023-05-24T06:49:17.849Z,24.08
2023-05-24T06:50:17.828Z,24.05
2023-05-24T06:51:17.850Z,24.07
2023-05-24T06:52:17.793Z,24.07
2023-05-24T06:53:17.848Z,24.10
2023-05-24T06:54:17.797Z,24.07
2023-05-24T06:55:17.798Z,24.07
2023-05-24T06:56:17.797Z,24.08
2023-05-24T06:57:17.780Z,24.07
2023-05-24T06:58:17.783Z,24.08
2023-05-24T06:59:17.791Z,24.08
2023-05-24T07:00:17.803Z,24.08
2023-05-24T07:01:17.790Z,24.07
2023-05-24T07:02:17.752Z,24.10
2023-05-24T07:03:17.735Z,24.07
2023-05-24T07:04:17.767Z,24.07
2023-05-24T07:05:17.722Z,24.10
2023-05-24T07:06:17.831Z,24.11
2023-05-24T07:07:17.740Z,24.08
2023-05-24T07:08:17.744Z,24.08
2023-05-24T07:09:17.722Z,24.10
2023-05-24T07:10:17.674Z,24.10
2023-05-24T07:11:17.712Z,24.08
2023-05-24T07:12:17.705Z,24.10
2023-05-24T07:13:17.643Z,24.11
2023-05-24T07:14:17.646Z,24.12
2023-05-24T07:15:17.645Z,24.10
2023-05-24T07:16:17.691Z,24.11
2023-05-24T07:17:17.681Z,24.11
2023-05-24T07:18:17.622Z,24.14
2023-05-24T07:19:17.620Z,24.11
2023-05-24T07:20:17.663Z,24.10
2023-05-24T07:21:17.588Z,24.10
2023-05-24T07:22:17.591Z,24.14
2023-05-24T07:23:17.593Z,24.10
2023-05-24T07:24:17.605Z,24.11
2023-05-24T07:25:17.604Z,24.12
2023-05-24T07:26:17.564Z,24.12
2023-05-24T07:27:17.557Z,24.11
2023-05-24T07:28:17.554Z,24.11
2023-05-24T07:29:17.556Z,24.11
2023-05-24T07:30:31.167Z,24.14
2023-05-24T07:31:18.588Z,24.11
2023-05-24T07:32:17.572Z,24.10
2023-05-24T07:33:17.544Z,24.14
2023-05-24T07:34:17.517Z,24.12
2023-05-24T07:35:17.517Z,24.11
2023-05-24T07:36:17.492Z,24.14
2023-05-24T07:37:17.525Z,24.12
2023-05-24T07:38:17.645Z,24.11
2023-05-24T07:39:17.486Z,24.12
2023-05-24T07:40:17.489Z,24.12
2023-05-24T07:41:17.454Z,24.15
2023-05-24T07:42:17.432Z,24.12
2023-05-24T07:43:17.452Z,24.12
2023-05-24T07:44:17.451Z,24.15
2023-05-24T07:45:18.086Z,24.15
2023-05-24T07:46:17.609Z,24.15
2023-05-24T07:47:17.501Z,24.12
2023-05-24T07:48:17.612Z,24.15
2023-05-24T07:49:17.523Z,24.14
2023-05-24T07:50:17.590Z,24.14
2023-05-24T07:51:17.609Z,24.14
2023-05-24T07:52:17.562Z,24.17
2023-05-24T07:53:17.584Z,24.15
2023-05-24T07:54:17.609Z,24.15
2023-05-24T07:55:17.628Z,24.17
2023-05-24T07:56:17.647Z,24.17
2023-05-24T07:57:17.629Z,24.15
2023-05-24T07:58:17.640Z,24.18
2023-05-24T07:59:17.661Z,24.15
2023-05-24T08:00:17.686Z,24.15
2023-05-24T08:01:17.713Z,24.17
2023-05-24T08:02:17.737Z,24.15
2023-05-24T08:03:17.841Z,24.15
2023-05-24T08:04:17.770Z,24.17
2023-05-24T08:05:17.805Z,24.15
2023-05-24T08:06:17.794Z,24.17
2023-05-24T08:07:17.923Z,24.17
2023-05-24T08:08:17.858Z,24.17
2023-05-24T08:09:17.911Z,24.18
2023-05-24T08:10:17.988Z,24.18
2023-05-24T08:11:17.939Z,24.17
2023-05-24T08:12:17.966Z,24.19
2023-05-24T08:13:17.999Z,24.18
2023-05-24T08:14:18.022Z,24.18
2023-05-24T08:15:18.013Z,24.17
2023-05-24T08:16:18.101Z,24.18
2023-05-24T08:17:18.036Z,24.17
2023-05-24T08:18:18.085Z,24.21
2023-05-24T08:19:18.086Z,24.18
2023-05-24T08:20:18.163Z,24.21
2023-05-24T08:21:18.156Z,24.18
2023-05-24T08:22:18.197Z,24.19
2023-05-24T08:23:18.212Z,24.17
2023-05-24T08:24:18.327Z,24.18
2023-05-24T08:25:18.370Z,24.18
2023-05-24T08:26:18.405Z,24.18
2023-05-24T08:27:18.453Z,24.15
2023-05-24T08:28:18.574Z,24.19
2023-05-24T08:29:18.556Z,24.18
2023-05-24T08:30:18.597Z,24.19
2023-05-24T08:31:18.674Z,24.18
2023-05-24T08:32:18.649Z,24.18
2023-05-24T08:33:18.697Z,24.17
2023-05-24T08:34:18.657Z,24.19
2023-05-24T08:35:21.657Z,24.21
2023-05-24T08:36:18.706Z,24.19
2023-05-24T08:37:18.678Z,24.19
2023-05-24T08:38:18.713Z,24.21
2023-05-24T08:39:19.574Z,24.21
2023-05-24T08:40:18.645Z,24.19
2023-05-24T08:41:18.676Z,24.22
2023-05-24T08:42:18.725Z,24.19
2023-05-24T08:43:18.659Z,24.19
2023-05-24T08:44:18.637Z,24.19
2023-05-24T08:45:18.638Z,24.21
2023-05-24T08:46:18.670Z,24.19
2023-05-24T08:47:18.617Z,24.22
2023-05-24T08:48:18.655Z,24.22
2023-05-24T08:49:18.599Z,24.19
2023-05-24T08:50:18.574Z,24.19
2023-05-24T08:51:18.570Z,24.24
2023-05-24T08:52:18.561Z,24.25
2023-05-24T08:53:18.535Z,24.27
2023-05-24T08:54:18.557Z,24.29
2023-05-24T08:55:18.563Z,24.29
2023-05-24T08:56:18.615Z,24.32
2023-05-24T08:57:18.508Z,24.35
2023-05-24T08:58:18.526Z,24.36
2023-05-24T08:59:18.502Z,24.38
2023-05-24T09:00:18.594Z,24.43
2023-05-24T09:01:18.548Z,24.42
2023-05-24T09:02:18.490Z,24.46
2023-05-24T09:03:18.571Z,24.49
2023-05-24T09:04:18.667Z,24.51
2023-05-24T09:05:18.469Z,24.52
2023-05-24T09:06:18.471Z,24.53
2023-05-24T09:07:18.455Z,24.56
2023-05-24T09:08:18.479Z,24.58
2023-05-24T09:09:18.420Z,24.60
2023-05-24T09:10:18.485Z,24.62
2023-05-24T09:11:18.568Z,24.63
2023-05-24T09:12:28.317Z,24.67
2023-05-24T09:13:19.553Z,24.67
2023-05-24T09:14:18.588Z,24.71
2023-05-24T09:15:18.543Z,24.70
2023-05-24T09:16:18.616Z,24.74
2023-05-24T09:17:18.496Z,24.74
2023-05-24T09:18:18.564Z,24.76
2023-05-24T09:19:18.498Z,24.77
2023-05-24T09:20:18.533Z,24.80
2023-05-24T09:21:18.494Z,24.83
2023-05-24T09:22:18.491Z,24.84
2023-05-24T09:23:18.494Z,24.86
2023-05-24T09:24:18.470Z,24.84
2023-05-24T09:25:18.459Z,24.86
2023-05-24T09:26:18.478Z,24.87
2023-05-24T09:27:18.458Z,24.87
2023-05-24T09:28:18.432Z,24.90
2023-05-24T09:29:18.441Z,24.93
2023-05-24T09:30:18.454Z,24.91
2023-05-24T09:31:18.785Z,24.93
2023-05-24T09:32:18.392Z,24.95
2023-05-24T09:33:18.409Z,24.95
2023-05-24T09:34:18.401Z,24.97
2023-05-24T09:35:18.430Z,24.98
2023-05-24T09:36:18.420Z,24.99
2023-05-24T09:37:18.421Z,25.01
2023-05-24T09:38:18.429Z,25.05
2023-05-24T09:39:18.427Z,25.04
2023-05-24T09:40:18.488Z,25.07
2023-05-24T09:41:18.411Z,25.05
2023-05-24T09:42:18.418Z,25.07
2023-05-24T09:43:18.424Z,25.10
2023-05-24T09:44:18.433Z,25.08
2023-05-24T09:45:18.396Z,25.13
2023-05-24T09:46:18.714Z,25.10
2023-05-24T09:47:18.443Z,25.13
2023-05-24T09:48:18.404Z,25.13
2023-05-24T09:49:18.413Z,25.11
2023-05-24T09:50:18.462Z,25.07
2023-05-24T09:51:18.675Z,25.04
2023-05-24T09:52:18.378Z,25.05
2023-05-24T09:53:18.396Z,25.04
2023-05-24T09:54:18.410Z,25.03
2023-05-24T09:55:18.421Z,24.99
2023-05-24T09:56:18.432Z,24.97
2023-05-24T09:57:18.460Z,24.95
2023-05-24T09:58:18.475Z,24.94
2023-05-24T09:59:18.478Z,24.94
2023-05-24T10:00:18.516Z,24.91
2023-05-24T10:01:18.573Z,24.88
2023-05-24T10:02:18.605Z,24.91
2023-05-24T10:03:18.643Z,24.87
2023-05-24T10:04:18.687Z,24.87
2023-05-24T10:05:18.636Z,24.86
2023-05-24T10:06:18.678Z,24.84
2023-05-24T10:07:18.700Z,24.83
2023-05-24T10:08:18.741Z,24.83
2023-05-24T10:09:18.777Z,24.84
2023-05-24T10:10:18.825Z,24.80
2023-05-24T10:11:18.842Z,24.83
2023-05-24T10:12:18.899Z,24.79
2023-05-24T10:13:18.922Z,24.76
2023-05-24T10:14:18.930Z,24.79
2023-05-24T10:15:18.950Z,24.79
2023-05-24T10:16:19.022Z,24.74
2023-05-24T10:17:19.060Z,24.74
2023-05-24T10:18:19.176Z,24.74
2023-05-24T10:19:19.107Z,24.74
2023-05-24T10:20:19.209Z,24.76
2023-05-24T10:21:19.226Z,24.73
2023-05-24T10:22:19.227Z,24.71
2023-05-24T10:23:19.259Z,24.73
2023-05-24T10:24:19.325Z,24.71
2023-05-24T10:25:19.311Z,24.74
2023-05-24T10:26:19.339Z,24.70
2023-05-24T10:27:19.406Z,24.70
2023-05-24T10:28:19.421Z,24.69
2023-05-24T10:29:19.465Z,24.69
2023-05-24T10:30:19.561Z,24.69
2023-05-24T10:31:19.664Z,24.70
2023-05-24T10:32:19.642Z,24.69
2023-05-24T10:33:19.632Z,24.66
2023-05-24T10:34:19.752Z,24.69
2023-05-24T10:35:19.711Z,24.69
2023-05-24T10:36:19.763Z,24.69
2023-05-24T10:37:19.807Z,24.64
2023-05-24T10:38:19.848Z,24.66
2023-05-24T10:39:19.868Z,24.67
2023-05-24T10:40:19.924Z,24.66
2023-05-24T10:41:19.964Z,24.64
2023-05-24T10:42:20.017Z,24.64
2023-05-24T10:43:20.041Z,24.63
2023-05-24T10:44:20.089Z,24.67
2023-05-24T10:45:20.146Z,24.64
2023-05-24T10:46:20.219Z,24.66
2023-05-24T10:47:20.207Z,24.64
2023-05-24T10:48:20.266Z,24.67
2023-05-24T10:49:20.291Z,24.64
2023-05-24T10:50:20.331Z,24.67
2023-05-24T10:51:20.373Z,24.63
2023-05-24T10:52:20.436Z,24.63
2023-05-24T10:53:20.456Z,24.67
2023-05-24T10:54:20.506Z,24.66
2023-05-24T10:55:20.531Z,24.64
2023-05-24T10:56:20.609Z,24.64
2023-05-24T10:57:20.647Z,24.62
2023-05-24T10:58:20.666Z,24.62
2023-05-24T10:59:20.718Z,24.63
2023-05-24T11:00:47.280Z,24.64
2023-05-24T11:01:21.768Z,24.63
2023-05-24T11:02:20.787Z,24.62
2023-05-24T11:03:20.733Z,24.62
2023-05-24T11:04:20.782Z,24.59
2023-05-24T11:05:20.766Z,24.59
2023-05-24T11:06:21.248Z,24.60
2023-05-24T11:07:20.677Z,24.60
2023-05-24T11:08:20.707Z,24.60
2023-05-24T11:09:20.703Z,24.58
2023-05-24T11:10:20.653Z,24.58
2023-05-24T11:11:26.638Z,24.59
2023-05-24T11:12:21.692Z,24.60
2023-05-24T11:13:20.675Z,24.58
2023-05-24T11:14:20.732Z,24.56
2023-05-24T11:15:20.802Z,24.56
2023-05-24T11:16:20.900Z,24.56
2023-05-24T11:17:20.890Z,24.56
2023-05-24T11:18:20.925Z,24.53
2023-05-24T11:19:20.982Z,24.55
2023-05-24T11:20:21.042Z,24.58
2023-05-24T11:21:21.109Z,24.56
2023-05-24T11:22:22.145Z,24.53
2023-05-24T11:23:21.163Z,24.53
2023-05-24T11:24:21.230Z,24.55
2023-05-24T11:25:21.306Z,24.52
2023-05-24T11:26:21.321Z,24.53
2023-05-24T11:27:21.377Z,24.51
2023-05-24T11:28:21.431Z,24.53
2023-05-24T11:29:21.477Z,24.52
2023-05-24T11:30:21.501Z,24.52
2023-05-24T11:31:21.573Z,24.52
2023-05-24T11:32:21.698Z,24.51
2023-05-24T11:33:21.665Z,24.52
2023-05-24T11:34:21.725Z,24.53
2023-05-24T11:35:21.779Z,24.53
2023-05-24T11:36:21.819Z,24.52
2023-05-24T11:37:28.650Z,24.52
2023-05-24T11:38:24.941Z,24.53
2023-05-24T11:39:21.868Z,24.55
2023-05-24T11:40:21.871Z,24.52
2023-05-24T11:41:22.587Z,24.53
2023-05-24T11:42:21.831Z,24.52
2023-05-24T11:43:21.808Z,24.53
2023-05-24T11:44:21.815Z,24.51
2023-05-24T11:45:21.811Z,24.52
2023-05-24T11:46:21.906Z,24.49
2023-05-24T11:48:21.773Z,24.51
2023-05-24T11:49:21.765Z,24.51
2023-05-24T11:50:21.799Z,24.48
2023-05-24T11:51:21.760Z,24.46
2023-05-24T11:52:21.742Z,24.48
2023-05-24T11:53:21.816Z,24.48
2023-05-24T11:54:21.749Z,24.48
2023-05-24T11:55:21.711Z,24.49
2023-05-24T11:56:21.724Z,24.45
2023-05-24T11:57:21.733Z,24.45
2023-05-24T11:58:21.713Z,24.45
2023-05-24T11:59:21.694Z,24.45
2023-05-24T12:00:21.702Z,24.43
2023-05-24T12:01:21.706Z,24.43
2023-05-24T12:02:21.788Z,24.42
2023-05-24T12:03:21.836Z,24.46
2023-05-24T12:04:21.758Z,24.45
2023-05-24T12:05:21.689Z,24.43
2023-05-24T12:06:21.678Z,24.42
2023-05-24T12:07:21.651Z,24.43
2023-05-24T12:08:21.719Z,24.40
2023-05-24T12:09:21.678Z,24.43
2023-05-24T12:10:23.066Z,24.39
2023-05-24T12:11:21.801Z,24.42
2023-05-24T12:12:27.105Z,24.40
2023-05-24T12:13:22.858Z,24.40
2023-05-24T12:14:21.830Z,24.39
2023-05-24T12:15:21.806Z,24.36
2023-05-24T12:16:21.834Z,24.40
2023-05-24T12:17:21.803Z,24.39
2023-05-24T12:18:21.779Z,24.38
2023-05-24T12:19:32.296Z,24.39
2023-05-24T12:20:22.873Z,24.36
2023-05-24T12:21:21.816Z,24.39
2023-05-24T12:22:22.186Z,24.39
2023-05-24T12:23:21.825Z,24.38
2023-05-24T12:24:21.732Z,24.36
2023-05-24T12:25:21.727Z,24.38
2023-05-24T12:26:21.703Z,24.38
2023-05-24T12:27:21.691Z,24.38
2023-05-24T12:28:21.745Z,24.36
2023-05-24T12:29:21.796Z,24.38
2023-05-24T12:30:21.857Z,24.35
2023-05-24T12:31:21.912Z,24.36
2023-05-24T12:32:22.014Z,24.35
2023-05-24T12:33:22.038Z,24.38
2023-05-24T12:34:22.110Z,24.38
2023-05-24T12:35:22.153Z,24.35
2023-05-24T12:36:22.208Z,24.36
2023-05-24T12:37:22.293Z,24.35
2023-05-24T12:38:22.332Z,24.36
2023-05-24T12:39:22.390Z,24.35
2023-05-24T12:40:22.437Z,24.35
2023-05-24T12:41:22.537Z,24.34
2023-05-24T12:42:22.561Z,24.34
2023-05-24T12:43:22.618Z,24.32
2023-05-24T12:44:22.671Z,24.34
2023-05-24T12:45:22.735Z,24.34
2023-05-24T12:46:22.841Z,24.34
2023-05-24T12:47:22.975Z,24.34
2023-05-24T12:48:22.950Z,24.35
2023-05-24T12:49:22.991Z,24.34
2023-05-24T12:50:23.058Z,24.32
2023-05-24T12:51:23.135Z,24.34
2023-05-24T12:52:24.638Z,24.32
2023-05-24T12:53:23.252Z,24.32